createdAt,value
2023-01-26T00:01:30.317Z,178.37
2023-01-26T00:03:58.232Z,182.80
2023-01-26T00:06:26.315Z,173.57
2023-01-26T00:08:56.477Z,169.27
2023-01-26T00:11:26.973Z,173.07
2023-01-26T00:13:59.837Z,170.00
2023-01-26T00:16:28.152Z,172.10
2023-01-26T00:18:55.440Z,172.57
2023-01-26T00:21:24.147Z,171.23
2023-01-26T00:23:52.785Z,176.53
2023-01-26T00:26:25.703Z,177.03
2023-01-26T00:28:54.422Z,176.30
2023-01-26T00:31:25.793Z,170.57
2023-01-26T00:33:54.772Z,177.13
2023-01-26T00:36:22.157Z,184.97
2023-01-26T00:38:49.253Z,176.93
2023-01-26T00:41:34.675Z,166.50
2023-01-26T00:44:02.273Z,177.10
2023-01-26T00:46:29.891Z,173.73
2023-01-26T00:48:57.440Z,178.37
2023-01-26T00:51:25.004Z,177.90
2023-01-26T00:53:52.058Z,180.00
2023-01-26T00:56:19.540Z,178.97
2023-01-26T00:58:47.093Z,172.83
2023-01-26T01:01:14.435Z,187.60
2023-01-26T01:03:43.386Z,181.43
2023-01-26T01:06:10.663Z,177.13
2023-01-26T01:08:38.182Z,176.53
2023-01-26T01:11:10.148Z,183.63
2023-01-26T01:13:38.701Z,177.37
2023-01-26T01:16:08.398Z,176.20
2023-01-26T01:18:36.892Z,184.57
2023-01-26T01:21:13.388Z,187.17
2023-01-26T01:23:41.586Z,185.07
2023-01-26T01:26:10.036Z,173.00
2023-01-26T01:28:38.497Z,185.23
2023-01-26T01:31:12.630Z,174.23
2023-01-26T01:33:40.375Z,179.17
2023-01-26T01:36:13.230Z,186.70
2023-01-26T01:38:41.361Z,178.33
2023-01-26T01:41:09.119Z,177.63
2023-01-26T01:43:36.982Z,181.87
2023-01-26T01:46:34.492Z,184.13
2023-01-26T01:49:03.389Z,180.47
2023-01-26T01:51:41.841Z,181.97
2023-01-26T01:54:17.298Z,176.83
2023-01-26T01:56:51.615Z,177.63
2023-01-26T01:59:21.407Z,175.40
2023-01-26T02:01:52.260Z,173.90
2023-01-26T02:04:21.697Z,178.73
2023-01-26T02:06:56.290Z,174.17
2023-01-26T02:09:52.010Z,170.70
2023-01-26T02:12:24.422Z,172.67
2023-01-26T02:14:53.076Z,174.30
2023-01-26T02:17:21.904Z,179.43
2023-01-26T02:20:21.146Z,176.20
2023-01-26T02:22:53.887Z,173.27
2023-01-26T02:25:40.825Z,182.37
2023-01-26T02:28:08.440Z,173.90
2023-01-26T02:30:35.868Z,178.03
2023-01-26T02:33:03.527Z,176.23
2023-01-26T02:35:30.866Z,175.73
2023-01-26T02:37:59.690Z,174.17
2023-01-26T02:40:46.891Z,175.57
2023-01-26T02:43:15.981Z,172.57
2023-01-26T02:45:44.270Z,178.97
2023-01-26T02:48:11.560Z,167.83
2023-01-26T02:50:40.519Z,168.57
2023-01-26T02:53:07.977Z,178.73
2023-01-26T02:55:35.504Z,170.20
2023-01-26T02:58:04.706Z,169.10
2023-01-26T03:00:42.141Z,172.80
2023-01-26T03:03:20.309Z,174.00
2023-01-26T03:05:48.122Z,174.30
2023-01-26T03:08:15.297Z,174.30
2023-01-26T03:10:42.978Z,172.73
2023-01-26T03:13:10.083Z,171.07
2023-01-26T03:15:43.429Z,170.13
2023-01-26T03:18:35.588Z,173.87
2023-01-26T03:21:33.196Z,167.23
2023-01-26T03:24:20.244Z,177.17
2023-01-26T03:27:07.134Z,175.57
2023-01-26T03:29:34.788Z,170.20
2023-01-26T03:32:02.697Z,168.83
2023-01-26T03:34:30.769Z,177.00
2023-01-26T03:36:58.801Z,171.50
2023-01-26T03:39:47.583Z,172.87
2023-01-26T03:42:35.806Z,178.23
2023-01-26T03:45:21.771Z,167.37
2023-01-26T03:48:08.141Z,167.37
2023-01-26T03:50:54.471Z,177.13
2023-01-26T03:53:42.770Z,173.83
2023-01-26T03:56:18.539Z,166.13
2023-01-26T03:58:55.552Z,170.13
2023-01-26T04:01:28.140Z,171.67
2023-01-26T04:04:17.058Z,174.50
2023-01-26T04:07:07.568Z,173.73
2023-01-26T04:09:39.660Z,169.57
2023-01-26T04:12:07.519Z,177.97
2023-01-26T04:14:57.593Z,176.43
2023-01-26T04:17:44.822Z,179.87
2023-01-26T04:20:31.960Z,170.13
2023-01-26T04:22:59.046Z,168.83
2023-01-26T04:25:26.160Z,182.20
2023-01-26T04:27:53.680Z,173.47
2023-01-26T04:30:21.029Z,186.37
2023-01-26T04:32:48.903Z,176.10
2023-01-26T04:35:16.809Z,181.60
2023-01-26T04:37:44.311Z,176.90
2023-01-26T04:40:12.410Z,180.10
2023-01-26T04:42:40.909Z,184.43
2023-01-26T04:45:11.280Z,187.87
2023-01-26T04:47:39.346Z,173.33
2023-01-26T04:50:07.313Z,184.13
2023-01-26T04:52:34.551Z,182.70
2023-01-26T04:55:01.643Z,180.43
2023-01-26T04:57:30.550Z,180.27
2023-01-26T05:00:00.608Z,184.63
2023-01-26T05:02:28.997Z,172.77
2023-01-26T05:04:56.648Z,176.67
2023-01-26T05:07:24.998Z,177.90
2023-01-26T05:09:53.049Z,174.87
2023-01-26T05:12:35.222Z,176.67
2023-01-26T05:15:31.305Z,174.37
2023-01-26T05:18:15.072Z,180.27
2023-01-26T05:21:08.931Z,167.20
2023-01-26T05:23:41.729Z,177.50
2023-01-26T05:26:14.293Z,174.57
2023-01-26T05:28:53.502Z,178.37
2023-01-26T05:31:20.680Z,182.23
2023-01-26T05:33:47.883Z,185.20
2023-01-26T05:36:20.393Z,177.50
2023-01-26T05:38:47.508Z,177.40
2023-01-26T05:41:15.436Z,175.33
2023-01-26T05:44:14.589Z,173.33
2023-01-26T05:46:52.633Z,187.73
2023-01-26T05:49:20.256Z,181.97
2023-01-26T05:51:48.733Z,174.77
2023-01-26T05:54:16.611Z,183.33
2023-01-26T05:56:44.168Z,180.17
2023-01-26T05:59:12.089Z,175.80
2023-01-26T06:01:39.859Z,179.83
2023-01-26T06:04:09.118Z,179.27
2023-01-26T06:06:43.415Z,171.07
2023-01-26T06:09:30.498Z,180.20
2023-01-26T06:12:03.681Z,174.03
2023-01-26T06:14:58.849Z,178.07
2023-01-26T06:17:35.020Z,175.90
2023-01-26T06:20:06.343Z,180.90
2023-01-26T06:22:34.873Z,179.30
2023-01-26T06:25:02.766Z,183.03
2023-01-26T06:27:30.749Z,181.67
2023-01-26T06:30:01.857Z,177.07
2023-01-26T06:32:30.926Z,183.17
2023-01-26T06:34:58.907Z,182.50
2023-01-26T06:37:26.236Z,183.77
2023-01-26T06:39:54.304Z,184.73
2023-01-26T06:42:21.778Z,179.97
2023-01-26T06:44:49.275Z,183.27
2023-01-26T06:47:17.633Z,182.50
2023-01-26T06:49:45.901Z,193.23
2023-01-26T06:52:44.359Z,186.33
2023-01-26T06:55:38.065Z,182.93
2023-01-26T06:58:23.700Z,177.90
2023-01-26T07:01:26.228Z,192.17
2023-01-26T07:03:54.914Z,184.00
2023-01-26T07:06:22.551Z,184.50
2023-01-26T07:08:50.103Z,186.03
2023-01-26T07:11:17.665Z,177.63
2023-01-26T07:13:45.217Z,179.30
2023-01-26T07:16:15.724Z,178.67
2023-01-26T07:18:43.514Z,185.80
2023-01-26T07:21:18.982Z,168.93
2023-01-26T07:23:46.927Z,176.43
2023-01-26T07:26:14.719Z,188.90
2023-01-26T07:28:42.203Z,177.20
2023-01-26T07:31:10.567Z,170.80
2023-01-26T07:33:38.054Z,174.70
2023-01-26T07:36:05.736Z,172.20
2023-01-26T07:38:34.080Z,170.70
2023-01-26T07:41:12.535Z,167.47
2023-01-26T07:43:41.297Z,173.90
2023-01-26T07:46:12.008Z,167.77
2023-01-26T07:48:40.871Z,165.27
2023-01-26T07:51:09.376Z,164.27
2023-01-26T07:53:39.589Z,160.47
2023-01-26T07:56:12.969Z,172.37
2023-01-26T07:58:40.646Z,171.10
2023-01-26T08:01:14.122Z,172.67
2023-01-26T08:03:42.281Z,172.60
2023-01-26T08:06:13.541Z,165.30
2023-01-26T08:08:42.665Z,170.10
2023-01-26T08:11:11.365Z,167.50
2023-01-26T08:13:38.998Z,159.67
2023-01-26T08:16:12.673Z,164.30
2023-01-26T08:18:42.463Z,159.87
2023-01-26T08:21:11.503Z,159.87
2023-01-26T08:23:38.955Z,159.20
2023-01-26T08:26:13.340Z,168.47
2023-01-26T08:28:41.613Z,156.33
2023-01-26T08:31:18.638Z,163.17
2023-01-26T08:33:47.415Z,155.70
2023-01-26T08:36:16.000Z,169.03
2023-01-26T08:38:44.026Z,158.07
2023-01-26T08:41:12.507Z,154.30
2023-01-26T08:43:40.241Z,153.33
2023-01-26T08:46:07.820Z,161.07
2023-01-26T08:48:35.775Z,153.70
2023-01-26T08:51:05.171Z,148.33
2023-01-26T08:53:34.329Z,151.97
2023-01-26T08:56:06.870Z,152.77
2023-01-26T08:58:35.327Z,160.77
2023-01-26T09:01:06.907Z,148.10
2023-01-26T09:03:34.519Z,147.20
2023-01-26T09:06:04.449Z,155.90
2023-01-26T09:08:32.465Z,150.83
2023-01-26T09:10:59.885Z,159.43
2023-01-26T09:13:26.982Z,169.47
2023-01-26T09:15:54.064Z,164.10
2023-01-26T09:18:21.523Z,159.20
2023-01-26T09:20:51.197Z,156.77
2023-01-26T09:23:18.849Z,155.83
2023-01-26T09:25:46.339Z,157.90
2023-01-26T09:28:13.792Z,156.97
2023-01-26T09:30:41.050Z,153.23
2023-01-26T09:33:08.583Z,158.50
2023-01-26T09:35:36.037Z,154.57
2023-01-26T09:38:03.462Z,154.47
2023-01-26T09:40:56.379Z,159.17
2023-01-26T09:43:42.991Z,160.73
2023-01-26T09:46:29.466Z,162.33
2023-01-26T09:49:19.264Z,153.77
2023-01-26T09:52:04.754Z,147.17
2023-01-26T09:54:45.352Z,150.83
2023-01-26T09:57:19.614Z,149.20
2023-01-26T10:00:04.727Z,148.93
2023-01-26T10:02:56.548Z,147.87
2023-01-26T10:05:35.390Z,157.23
2023-01-26T10:08:15.227Z,156.83
2023-01-26T10:10:50.897Z,146.90
2023-01-26T10:13:19.028Z,151.77
2023-01-26T10:15:53.115Z,153.27
2023-01-26T10:18:52.338Z,149.70
2023-01-26T10:21:23.944Z,149.00
2023-01-26T10:23:52.954Z,150.63
2023-01-26T10:26:23.509Z,152.80
2023-01-26T10:28:52.308Z,154.40
2023-01-26T10:31:34.209Z,146.60
2023-01-26T10:34:13.648Z,143.97
2023-01-26T10:36:44.021Z,156.30
2023-01-26T10:39:15.564Z,152.73
2023-01-26T10:42:02.000Z,146.67
2023-01-26T10:44:38.700Z,147.00
2023-01-26T10:47:15.696Z,148.00
2023-01-26T10:49:43.817Z,150.63
2023-01-26T10:52:25.524Z,147.67
2023-01-26T10:55:20.511Z,147.07
2023-01-26T10:57:47.946Z,148.87
2023-01-26T11:00:34.464Z,146.80
2023-01-26T11:03:13.899Z,158.07
2023-01-26T11:05:43.640Z,152.97
2023-01-26T11:08:35.560Z,158.47
2023-01-26T11:11:04.717Z,149.87
2023-01-26T11:13:32.331Z,153.53
2023-01-26T11:16:14.702Z,148.90
2023-01-26T11:18:57.357Z,152.63
2023-01-26T11:21:32.166Z,154.23
2023-01-26T11:24:27.078Z,158.70
2023-01-26T11:27:30.011Z,150.07
2023-01-26T11:30:29.691Z,151.80
2023-01-26T11:33:23.846Z,146.73
2023-01-26T11:36:17.551Z,152.00
2023-01-26T11:39:44.799Z,148.87
2023-01-26T11:42:17.407Z,151.87
2023-01-26T11:45:29.205Z,149.40
2023-01-26T11:48:01.885Z,152.17
2023-01-26T11:50:39.092Z,147.20
2023-01-26T11:53:06.474Z,146.63
2023-01-26T11:55:49.212Z,152.67
2023-01-26T11:59:03.818Z,152.90
2023-01-26T12:01:42.423Z,155.63
2023-01-26T12:04:19.289Z,150.07
2023-01-26T12:07:00.394Z,149.97
2023-01-26T12:09:33.376Z,149.37
2023-01-26T12:12:43.157Z,146.93
2023-01-26T12:15:24.370Z,150.37
2023-01-26T12:17:54.492Z,151.63
2023-01-26T12:20:40.310Z,152.93
2023-01-26T12:23:33.466Z,150.00
2023-01-26T12:26:22.036Z,156.23
2023-01-26T12:29:17.417Z,157.13
2023-01-26T12:31:59.077Z,152.70
2023-01-26T12:34:33.756Z,156.57
2023-01-26T12:37:42.625Z,150.53
2023-01-26T12:40:35.807Z,154.60
2023-01-26T12:43:39.784Z,155.00
2023-01-26T12:46:09.492Z,157.27
2023-01-26T12:48:50.919Z,158.33
2023-01-26T12:51:29.797Z,154.53
2023-01-26T12:54:30.867Z,153.87
2023-01-26T12:57:02.226Z,162.80
2023-01-26T12:59:47.972Z,154.97
2023-01-26T13:02:20.380Z,156.83
2023-01-26T13:04:49.228Z,157.23
2023-01-26T13:07:37.456Z,158.37
2023-01-26T13:10:23.658Z,160.00
2023-01-26T13:12:53.868Z,160.20
2023-01-26T13:15:28.077Z,160.77
2023-01-26T13:17:57.895Z,164.00
2023-01-26T13:20:40.247Z,174.27
2023-01-26T13:23:41.642Z,157.60
2023-01-26T13:26:34.333Z,157.47
2023-01-26T13:29:27.323Z,158.80
2023-01-26T13:32:20.772Z,163.30
2023-01-26T13:34:57.840Z,163.17
2023-01-26T13:38:02.516Z,165.60
2023-01-26T14:06:22.699Z,32.13
2023-01-26T14:08:56.278Z,30.13
2023-01-26T14:11:27.934Z,30.17
2023-01-26T14:13:59.923Z,38.00
2023-01-26T14:16:35.197Z,34.93
2023-01-26T14:19:15.079Z,38.87
2023-01-26T14:21:56.227Z,34.93
2023-01-26T14:24:39.769Z,41.03
2023-01-26T14:27:21.346Z,45.87
2023-01-26T14:29:48.703Z,45.67
2023-01-26T14:32:17.048Z,42.10
2023-01-26T14:34:58.810Z,38.67
2023-01-26T14:37:27.869Z,52.43
2023-01-26T14:40:22.395Z,51.13
2023-01-26T14:42:52.939Z,40.47
2023-01-26T14:45:30.241Z,33.70
2023-01-26T14:48:04.273Z,38.73
2023-01-26T14:50:32.427Z,45.20
2023-01-26T14:53:01.715Z,34.43
2023-01-26T14:55:32.603Z,35.40
2023-01-26T14:58:02.887Z,35.67
2023-01-26T15:00:37.194Z,37.90
2023-01-26T15:03:34.107Z,44.20
2023-01-26T15:06:20.387Z,39.60
2023-01-26T15:08:58.420Z,36.77
2023-01-26T15:12:02.376Z,53.27
2023-01-26T15:14:37.901Z,37.53
2023-01-26T15:17:05.859Z,47.33
2023-01-26T15:19:41.499Z,38.40
2023-01-26T15:22:35.010Z,38.73
2023-01-26T15:25:27.667Z,47.33
2023-01-26T15:28:00.361Z,48.53
2023-01-26T15:30:35.956Z,141.47
2023-01-26T15:33:03.583Z,40.07
2023-01-26T15:35:35.309Z,47.07
2023-01-26T15:38:13.307Z,54.57
2023-01-26T15:40:40.670Z,53.37
2023-01-26T15:43:14.645Z,55.07
2023-01-26T15:45:54.207Z,42.20
2023-01-26T15:48:22.922Z,48.07
2023-01-26T15:50:50.648Z,36.63
2023-01-26T15:53:21.502Z,62.77
2023-01-26T15:55:55.845Z,111.67
2023-01-26T15:58:23.750Z,183.40
2023-01-26T16:00:52.354Z,164.10
2023-01-26T16:03:22.342Z,178.53
2023-01-26T16:05:49.936Z,161.33
2023-01-26T16:08:18.363Z,167.00
2023-01-26T16:10:46.429Z,165.90
2023-01-26T16:13:19.760Z,62.63
2023-01-26T16:15:52.757Z,54.83
2023-01-26T16:18:21.022Z,52.40
2023-01-26T16:20:49.808Z,39.73
2023-01-26T16:23:22.009Z,40.30
2023-01-26T16:25:53.414Z,39.17
2023-01-26T16:28:21.794Z,40.00
2023-01-26T16:30:53.423Z,40.70
2023-01-26T16:33:21.325Z,37.33
2023-01-26T16:35:48.591Z,34.63
2023-01-26T16:38:15.796Z,46.13
2023-01-26T16:40:46.590Z,52.60
2023-01-26T16:43:27.493Z,66.90
2023-01-26T16:45:55.451Z,56.97
2023-01-26T16:48:23.829Z,63.30
2023-01-26T16:50:53.731Z,51.27
2023-01-26T16:53:27.519Z,48.87
2023-01-26T16:55:55.185Z,29.17
2023-01-26T16:58:26.203Z,31.13
2023-01-26T17:00:54.892Z,32.40
2023-01-26T17:03:22.167Z,37.60
2023-01-26T17:05:50.658Z,42.20
2023-01-26T17:08:17.847Z,34.17
2023-01-26T17:11:00.710Z,38.93
2023-01-26T17:13:29.160Z,38.03
2023-01-26T17:15:58.039Z,37.20
2023-01-26T17:18:25.830Z,34.17
2023-01-26T17:20:52.916Z,53.87
2023-01-26T17:23:20.448Z,47.33
2023-01-26T17:25:47.566Z,48.13
2023-01-26T17:28:14.683Z,117.10
2023-01-26T17:30:41.748Z,85.50
2023-01-26T17:33:08.872Z,99.67
2023-01-26T17:35:35.996Z,103.00
2023-01-26T17:38:03.150Z,115.20
2023-01-26T17:40:30.207Z,124.43
2023-01-26T17:42:57.254Z,141.50
2023-01-26T17:45:24.397Z,163.83
2023-01-26T17:47:51.489Z,160.10
2023-01-26T17:50:18.635Z,153.70
2023-01-26T17:52:45.737Z,158.63
2023-01-26T17:55:13.076Z,132.10
2023-01-26T17:57:40.463Z,153.80
2023-01-26T18:00:08.573Z,165.57
2023-01-26T18:02:37.951Z,165.33
2023-01-26T18:05:05.944Z,165.13
2023-01-26T18:07:33.044Z,141.53
2023-01-26T18:10:00.131Z,170.50
2023-01-26T18:12:27.219Z,190.27
2023-01-26T18:14:55.205Z,162.43
2023-01-26T18:17:22.730Z,175.03
2023-01-26T18:19:49.775Z,232.60
2023-01-26T18:22:16.845Z,221.67
2023-01-26T18:24:43.911Z,235.93
2023-01-26T18:27:11.682Z,42.87
2023-01-26T18:29:38.756Z,34.17
2023-01-26T18:32:06.413Z,32.50
2023-01-26T18:34:33.513Z,36.97
2023-01-26T18:37:00.542Z,34.87
2023-01-26T18:39:29.415Z,33.60
2023-01-26T18:41:57.096Z,29.97
2023-01-26T18:44:27.161Z,22.17
2023-01-26T18:46:54.366Z,27.00
2023-01-26T18:49:21.517Z,23.50
2023-01-26T18:51:49.176Z,26.87
2023-01-26T18:54:17.228Z,25.47
2023-01-26T18:56:44.480Z,25.97
2023-01-26T18:59:12.623Z,35.60
2023-01-26T19:01:40.207Z,66.57
2023-01-26T19:04:07.383Z,44.90
2023-01-26T19:06:36.261Z,90.60
2023-01-26T19:09:07.827Z,84.47
2023-01-26T19:11:38.110Z,101.53
2023-01-26T19:14:07.616Z,87.80
2023-01-26T19:16:35.949Z,63.73
2023-01-26T19:19:03.594Z,42.00
2023-01-26T19:21:33.675Z,36.67
2023-01-26T19:24:05.647Z,39.13
2023-01-26T19:26:33.113Z,36.87
2023-01-26T19:29:00.519Z,25.03
2023-01-26T19:31:28.496Z,24.00
2023-01-26T19:33:59.949Z,27.83
2023-01-26T19:36:30.558Z,30.13
2023-01-26T19:38:57.681Z,29.40
2023-01-26T19:41:25.724Z,28.80
2023-01-26T19:43:53.168Z,31.17
2023-01-26T19:46:21.482Z,32.80
2023-01-26T19:48:49.278Z,25.77
2023-01-26T19:51:22.908Z,27.27
2023-01-26T19:53:53.582Z,21.67
2023-01-26T19:56:35.109Z,24.40
2023-01-26T19:59:06.107Z,24.93
2023-01-26T20:01:33.721Z,24.97
2023-01-26T20:04:07.031Z,23.47
2023-01-26T20:06:36.098Z,26.37
2023-01-26T20:09:06.684Z,25.07
2023-01-26T20:11:34.346Z,26.67
2023-01-26T20:14:09.817Z,26.93
2023-01-26T20:16:37.421Z,22.20
2023-01-26T20:19:05.075Z,28.63
2023-01-26T20:21:33.205Z,26.90
2023-01-26T20:24:05.760Z,24.40
2023-01-26T20:26:35.234Z,25.57
2023-01-26T20:29:03.335Z,23.30
2023-01-26T20:31:32.594Z,20.67
2023-01-26T20:34:01.695Z,25.37
2023-01-26T20:36:29.414Z,24.47
2023-01-26T20:38:57.321Z,26.67
2023-01-26T20:41:29.077Z,24.87
2023-01-26T20:44:01.258Z,23.17
2023-01-26T20:46:36.425Z,24.97
2023-01-26T20:49:04.903Z,24.73
2023-01-26T20:51:35.884Z,26.33
2023-01-26T20:54:08.646Z,26.63
2023-01-26T20:56:36.622Z,22.23
2023-01-26T20:59:05.447Z,25.27
2023-01-26T21:01:36.601Z,24.03
2023-01-26T21:04:06.538Z,20.07
2023-01-26T21:06:34.573Z,22.80
2023-01-26T21:09:02.063Z,22.07
2023-01-26T21:11:31.806Z,25.17
2023-01-26T21:14:01.788Z,27.40
2023-01-26T21:16:31.072Z,33.70
2023-01-26T21:18:58.273Z,28.90
2023-01-26T21:21:25.650Z,26.30
2023-01-26T21:23:52.770Z,34.43
2023-01-26T21:26:23.151Z,25.60
2023-01-26T21:28:56.227Z,28.90
2023-01-26T21:31:25.735Z,33.10
2023-01-26T21:33:53.857Z,31.93
2023-01-26T21:36:25.685Z,25.33
2023-01-26T21:38:55.764Z,29.47
2023-01-26T21:41:52.235Z,27.67
2023-01-26T21:44:23.668Z,26.13
2023-01-26T21:46:56.813Z,24.90
2023-01-26T21:49:24.600Z,30.47
2023-01-26T21:52:11.565Z,24.90
2023-01-26T21:54:39.125Z,27.57
2023-01-26T21:57:27.954Z,32.20
2023-01-26T21:59:55.898Z,39.87
2023-01-26T22:02:23.916Z,36.23
2023-01-26T22:04:51.230Z,30.10
2023-01-26T22:07:18.436Z,33.17
2023-01-26T22:09:45.647Z,31.50
2023-01-26T22:12:12.742Z,32.37
2023-01-26T22:14:40.010Z,32.33
2023-01-26T22:17:07.341Z,29.10
2023-01-26T22:19:34.671Z,35.53
2023-01-26T22:22:03.548Z,36.47
2023-01-26T22:24:30.626Z,34.40
2023-01-26T22:26:57.709Z,33.93
2023-01-26T22:29:24.957Z,36.60
2023-01-26T22:31:52.102Z,29.47
2023-01-26T22:34:19.259Z,30.63
2023-01-26T22:36:46.400Z,23.63
2023-01-26T22:39:13.498Z,28.70
2023-01-26T22:41:40.638Z,30.60
2023-01-26T22:44:07.859Z,27.77
2023-01-26T22:46:35.414Z,28.60
2023-01-26T22:49:04.830Z,30.20
2023-01-26T22:51:37.430Z,40.80
2023-01-26T22:54:05.535Z,56.93
2023-01-26T22:56:32.689Z,51.70
2023-01-26T22:59:00.800Z,41.00
2023-01-26T23:01:33.088Z,41.30
2023-01-26T23:04:01.630Z,39.03
2023-01-26T23:06:29.396Z,30.33
2023-01-26T23:08:58.373Z,32.07
2023-01-26T23:11:28.941Z,31.07
2023-01-26T23:13:58.345Z,30.37
2023-01-26T23:16:26.550Z,32.17
2023-01-26T23:18:56.609Z,33.07
2023-01-26T23:21:25.861Z,34.13
2023-01-26T23:23:53.001Z,35.47
2023-01-26T23:26:20.894Z,37.47
2023-01-26T23:28:48.520Z,30.73
2023-01-26T23:31:18.862Z,40.53
2023-01-26T23:33:46.875Z,36.83
2023-01-26T23:36:15.409Z,44.77
2023-01-26T23:38:43.886Z,42.77
2023-01-26T23:41:12.095Z,33.57
2023-01-26T23:43:39.566Z,37.40
2023-01-26T23:46:08.874Z,31.17
2023-01-26T23:48:36.586Z,32.90
2023-01-26T23:51:07.592Z,41.60
2023-01-26T23:53:35.235Z,35.27
2023-01-26T23:56:13.981Z,34.57
2023-01-26T23:58:41.340Z,34.97
